Terminal Aerodrome Forecast
Issued by NWS

Current Version | Previous Version | Text Only | Print | Product List | Glossary On
Versions: 1 2 3 4 5 6 7 8 9 10 11 12 13 14 15 16 17 18 19 20 21 22
000
FTUS42 KMHX 041745
TAFPGV
TAF
KPGV 041745Z 0418/0518 02005KT P6SM VCSH SCT050
     FM050200 05004KT P6SM SCT050
     FM050800 01003KT P6SM BKN015
     FM051400 04008KT P6SM SCT020 BKN035
      AMD LTD TO CLD VIS AND WIND=

USA.gov is the U.S. government's official web portal to all federal, state and local government web resources and services.